Time;durP1;ratioP1;P1;durP2;ratioP2;P2;SDS_P1;SDS_P2;PMS_P1;PMS_P2;Temp;Humidity;BMP_temperature;BMP_pressure;BME280_temperature;BME280_humidity;BME280_pressure;Samples;Min_cycle;Max_cycle;Signal;HPM_P1;HPM_P2
2023/12/13 00:01:50;;;;;;;12.00;4.38;;;;;;;5.88;100.00;99668.53;5114741;28;20127;-90
2023/12/13 00:04:16;;;;;;;11.18;3.50;;;;;;;5.88;100.00;99670.31;5114089;28;20023;-86
2023/12/13 00:06:41;;;;;;;11.88;3.50;;;;;;;5.81;100.00;99659.50;5114455;28;20035;-87
2023/12/13 00:09:09;;;;;;;11.18;3.28;;;;;;;5.78;100.00;99659.78;5113787;28;20047;-85
2023/12/13 00:11:35;;;;;;;9.00;3.10;;;;;;;5.71;100.00;99659.47;5113769;28;20028;-85
2023/12/13 00:14:00;;;;;;;8.82;4.00;;;;;;;5.69;100.00;99656.16;5115741;28;20065;-85
2023/12/13 00:16:26;;;;;;;6.53;3.22;;;;;;;5.70;100.00;99656.97;5114601;28;20344;-86
2023/12/13 00:18:51;;;;;;;10.07;3.60;;;;;;;5.70;100.00;99657.78;5095006;28;20416;-84
2023/12/13 00:21:17;;;;;;;10.90;4.13;;;;;;;5.68;100.00;99654.47;5113462;28;20032;-85
2023/12/13 00:23:44;;;;;;;12.98;5.00;;;;;;;5.71;100.00;99653.38;5099637;28;20379;-86
2023/12/13 00:26:16;;;;;;;15.23;5.00;;;;;;;5.72;100.00;99660.28;5120517;28;20070;-83
2023/12/13 00:28:43;;;;;;;14.73;6.18;;;;;;;5.76;100.00;99661.69;5119594;28;20062;-84
2023/12/13 00:31:10;;;;;;;10.02;5.43;;;;;;;5.78;100.00;99659.78;5120294;28;20077;-83
2023/12/13 00:33:35;;;;;;;11.55;6.25;;;;;;;5.81;100.00;99665.59;5121868;28;20358;-84
2023/12/13 00:36:00;;;;;;;18.83;7.68;;;;;;;5.85;100.00;99660.88;5120605;28;20023;-84
2023/12/13 00:38:26;;;;;;;16.13;7.30;;;;;;;5.89;100.00;99662.28;5121691;28;20024;-85
2023/12/13 00:40:52;;;;;;;17.88;7.70;;;;;;;5.91;100.00;99659.50;5119729;28;20179;-83
2023/12/13 00:43:17;;;;;;;18.20;7.78;;;;;;;5.93;100.00;99660.19;5101917;28;20040;-84
2023/12/13 00:45:43;;;;;;;27.80;9.13;;;;;;;5.96;100.00;99673.13;5101695;28;20036;-86
2023/12/13 00:48:09;;;;;;;16.55;8.88;;;;;;;5.98;100.00;99668.56;5101923;28;20027;-83
2023/12/13 00:50:34;;;;;;;21.23;9.10;;;;;;;6.00;100.00;99666.59;5102095;28;20501;-83
2023/12/13 00:53:00;;;;;;;18.33;9.55;;;;;;;6.01;100.00;99670.94;5120881;28;20028;-84
2023/12/13 00:55:25;;;;;;;20.10;9.90;;;;;;;6.04;100.00;99661.91;5122452;28;20143;-84
2023/12/13 00:57:51;;;;;;;27.55;10.55;;;;;;;6.06;100.00;99662.59;5122120;28;20073;-86
2023/12/13 01:00:17;;;;;;;28.80;10.93;;;;;;;6.07;100.00;99662.44;5122536;28;20156;-84
2023/12/13 01:02:42;;;;;;;16.05;9.80;;;;;;;6.09;100.00;99659.66;5113756;28;20057;-85
2023/12/13 01:05:08;;;;;;;21.40;11.20;;;;;;;6.10;100.00;99658.69;5136901;28;20019;-84
2023/12/13 01:07:33;;;;;;;22.80;11.00;;;;;;;6.12;100.00;99656.75;5138011;28;20031;-84
2023/12/13 01:09:58;;;;;;;21.27;10.98;;;;;;;6.09;100.00;99654.38;5122265;28;20065;-83
2023/12/13 01:12:24;;;;;;;20.95;11.02;;;;;;;6.06;100.00;99659.94;5135669;28;20031;-83
2023/12/13 01:14:50;;;;;;;30.35;11.25;;;;;;;6.03;100.00;99655.78;5126183;28;20467;-86
2023/12/13 01:17:15;;;;;;;25.48;10.95;;;;;;;6.03;100.00;99654.94;5121673;28;20566;-83
2023/12/13 01:19:41;;;;;;;24.40;10.43;;;;;;;6.03;100.00;99652.31;5119650;28;20118;-84
2023/12/13 01:22:08;;;;;;;22.52;10.73;;;;;;;6.04;100.00;99649.53;5101735;28;20027;-84
2023/12/13 01:24:33;;;;;;;19.48;10.00;;;;;;;6.03;100.00;99650.50;5119799;28;20443;-83
2023/12/13 01:26:58;;;;;;;19.55;10.80;;;;;;;6.01;100.00;99647.16;5119890;28;20030;-82
2023/12/13 01:29:24;;;;;;;17.83;9.80;;;;;;;6.04;100.00;99653.97;5119978;28;20471;-85
2023/12/13 01:31:50;;;;;;;24.67;10.48;;;;;;;6.05;100.00;99656.47;5119606;28;20076;-83
2023/12/13 01:34:15;;;;;;;21.90;10.90;;;;;;;6.09;100.00;99659.66;5117613;28;20055;-84
2023/12/13 01:36:41;;;;;;;22.20;10.20;;;;;;;6.09;100.00;99663.16;5116071;28;20036;-83
2023/12/13 01:39:07;;;;;;;21.70;9.80;;;;;;;6.08;100.00;99660.66;5115916;28;20343;-86
2023/12/13 01:41:33;;;;;;;21.95;10.00;;;;;;;6.05;100.00;99653.84;5116306;28;20026;-85
2023/12/13 01:43:58;;;;;;;18.08;9.52;;;;;;;6.05;100.00;99661.75;5116178;28;20023;-80
2023/12/13 01:46:24;;;;;;;21.77;8.98;;;;;;;6.06;100.00;99658.16;5116043;28;20448;-83
2023/12/13 01:48:50;;;;;;;17.70;8.85;;;;;;;6.08;100.00;99660.66;5116138;28;20035;-83
2023/12/13 01:51:15;;;;;;;18.42;8.45;;;;;;;6.08;100.00;99656.19;5097852;28;20343;-82
2023/12/13 01:53:42;;;;;;;20.58;7.93;;;;;;;6.09;100.00;99663.16;5115701;28;20036;-81
2023/12/13 01:56:09;;;;;;;19.35;7.70;;;;;;;6.09;100.00;99659.66;5115480;28;20034;-82
2023/12/13 01:58:38;;;;;;;12.63;7.18;;;;;;;6.11;100.00;99661.19;5115992;28;20035;-82
2023/12/13 02:01:07;;;;;;;24.05;8.30;;;;;;;6.14;100.00;99657.47;5115823;28;20043;-84
2023/12/13 02:03:34;;;;;;;17.38;7.90;;;;;;;6.16;100.00;99661.59;5115601;28;20028;-82
2023/12/13 02:06:01;;;;;;;20.05;8.00;;;;;;;6.17;100.00;99663.28;5097562;28;20024;-83
2023/12/13 02:08:27;;;;;;;20.52;7.05;;;;;;;6.18;100.00;99657.03;5115325;28;20417;-83
2023/12/13 02:10:52;;;;;;;15.25;7.05;;;;;;;6.21;100.00;99663.00;5115296;28;20076;-83
2023/12/13 02:13:18;;;;;;;18.58;7.20;;;;;;;6.19;100.00;99657.84;5097934;28;20444;-83
2023/12/13 02:15:44;;;;;;;18.58;6.93;;;;;;;6.19;100.00;99657.84;5097332;28;20163;-82
2023/12/13 02:18:09;;;;;;;19.10;7.20;;;;;;;6.16;100.00;99658.97;5115425;28;20107;-83
2023/12/13 02:20:35;;;;;;;13.30;6.35;;;;;;;6.18;100.00;99658.84;5115707;28;20190;-82
2023/12/13 02:23:01;;;;;;;17.38;6.88;;;;;;;6.20;100.00;99654.25;5115219;28;20348;-82
2023/12/13 02:25:40;;;;;;;20.83;7.35;;;;;;;6.20;100.00;99656.06;5115140;28;20023;-83
2023/12/13 02:28:06;;;;;;;20.52;7.72;;;;;;;6.14;100.00;99658.28;5115446;28;20027;-83
2023/12/13 02:30:31;;;;;;;15.63;7.60;;;;;;;6.08;100.00;99656.19;5115090;28;20477;-82
2023/12/13 02:32:57;;;;;;;16.10;7.68;;;;;;;6.02;100.00;99654.13;5115398;28;20439;-83
2023/12/13 02:35:23;;;;;;;20.70;8.57;;;;;;;5.97;100.00;99661.59;5114834;28;20483;-82
2023/12/13 02:37:49;;;;;;;22.02;9.45;;;;;;;5.95;100.00;99645.03;5114918;28;20035;-83
2023/12/13 02:40:21;;;;;;;16.63;9.25;;;;;;;5.99;100.00;99651.75;5096442;28;20475;-82
2023/12/13 02:42:47;;;;;;;21.98;8.75;;;;;;;5.99;100.00;99654.41;5115017;28;20032;-82
2023/12/13 02:45:13;;;;;;;21.88;10.30;;;;;;;5.99;100.00;99651.75;5114891;28;20042;-82
2023/12/13 02:47:42;;;;;;;20.67;10.05;;;;;;;6.00;100.00;99648.97;5114507;28;20031;-83
2023/12/13 02:50:12;;;;;;;22.42;10.80;;;;;;;6.00;100.00;99646.34;5115525;28;20146;-81
2023/12/13 02:52:38;;;;;;;17.90;10.45;;;;;;;6.00;100.00;99643.69;5115524;28;20486;-82
2023/12/13 02:55:04;;;;;;;26.98;11.35;;;;;;;5.97;100.00;99645.75;5115550;28;20106;-83
2023/12/13 02:57:30;;;;;;;25.73;11.93;;;;;;;5.92;100.00;99658.53;5097069;28;20039;-82
2023/12/13 02:59:56;;;;;;;29.25;11.75;;;;;;;5.85;100.00;99649.47;5114930;28;20023;-84
2023/12/13 03:02:21;;;;;;;22.23;10.52;;;;;;;5.80;100.00;99657.81;5114612;28;20424;-83
2023/12/13 03:04:46;;;;;;;25.67;11.80;;;;;;;5.72;100.00;99660.28;5096116;28;20447;-83
2023/12/13 03:07:12;;;;;;;22.63;11.60;;;;;;;5.64;100.00;99660.97;5114292;28;20032;-83
2023/12/13 03:09:39;;;;;;;27.15;11.48;;;;;;;5.58;100.00;99651.81;5114317;28;20035;-83
2023/12/13 03:12:04;;;;;;;23.30;11.40;;;;;;;5.52;100.00;99654.97;5114107;28;20376;-82
2023/12/13 03:14:30;;;;;;;23.60;11.88;;;;;;;5.48;100.00;99653.59;5114331;28;20049;-83
2023/12/13 03:16:56;;;;;;;23.58;11.57;;;;;;;5.47;100.00;99651.94;5095764;28;20032;-83
2023/12/13 03:19:21;;;;;;;28.95;12.80;;;;;;;5.41;100.00;99640.09;5113569;28;20114;-82
2023/12/13 03:21:46;;;;;;;27.55;12.40;;;;;;;5.39;100.00;99646.47;5113792;28;20023;-82
2023/12/13 03:24:12;;;;;;;25.90;12.18;;;;;;;5.36;100.00;99647.59;5113917;28;20028;-82
2023/12/13 03:26:37;;;;;;;32.10;13.88;;;;;;;5.36;100.00;99649.38;5113888;28;20031;-82
2023/12/13 03:29:02;;;;;;;24.88;12.77;;;;;;;5.35;100.00;99645.91;5113473;28;20074;-83
2023/12/13 03:31:28;;;;;;;25.48;12.90;;;;;;;5.41;100.00;99639.28;5114410;28;20047;-82
2023/12/13 03:33:55;;;;;;;26.13;13.02;;;;;;;5.45;100.00;99646.78;5113880;28;20039;-82
2023/12/13 03:36:21;;;;;;;26.10;12.80;;;;;;;5.49;100.00;99644.69;5114595;28;20039;-82
2023/12/13 03:38:46;;;;;;;25.75;13.07;;;;;;;5.54;100.00;99647.78;5113491;28;20027;-83
2023/12/13 03:41:11;;;;;;;25.27;12.57;;;;;;;5.57;100.00;99644.00;5113607;28;20125;-83
2023/12/13 03:43:37;;;;;;;26.63;12.75;;;;;;;5.58;100.00;99640.41;5114140;28;20490;-84
2023/12/13 03:46:02;;;;;;;20.42;11.57;;;;;;;5.63;100.00;99641.69;5113910;28;20077;-83
2023/12/13 03:48:28;;;;;;;25.65;11.95;;;;;;;5.62;100.00;99637.38;5113999;28;20027;-84
2023/12/13 03:50:53;;;;;;;32.50;11.68;;;;;;;5.60;100.00;99635.84;5114378;28;20153;-83
2023/12/13 03:53:19;;;;;;;31.30;11.40;;;;;;;5.59;100.00;99635.00;5095785;28;20028;-83
2023/12/13 03:55:44;;;;;;;23.77;11.27;;;;;;;5.56;100.00;99635.28;5114143;28;20401;-82
2023/12/13 03:58:09;;;;;;;24.13;11.10;;;;;;;5.55;100.00;99640.69;5113164;28;20024;-86
2023/12/13 04:00:35;;;;;;;25.25;12.52;;;;;;;5.55;100.00;99638.06;5095583;28;20035;-83
2023/12/13 04:03:01;;;;;;;25.27;12.05;;;;;;;5.57;100.00;99636.09;5094831;28;20024;-84
2023/12/13 04:05:27;;;;;;;30.50;13.30;;;;;;;5.59;100.00;99637.63;5113362;28;20073;-84
2023/12/13 04:07:52;;;;;;;24.23;13.30;;;;;;;5.62;100.00;99629.44;5113831;28;20024;-84
2023/12/13 04:10:18;;;;;;;26.25;14.23;;;;;;;5.62;100.00;99629.44;5113694;28;20027;-83
2023/12/13 04:12:44;;;;;;;31.95;13.98;;;;;;;5.68;100.00;99643.09;5094850;28;20031;-83
2023/12/13 04:15:09;;;;;;;26.13;13.73;;;;;;;5.74;100.00;99634.63;5113497;28;20028;-84
2023/12/13 04:17:34;;;;;;;32.22;13.45;;;;;;;5.77;100.00;99634.34;5113264;28;20076;-83
2023/12/13 04:20:00;;;;;;;32.22;13.60;;;;;;;5.81;100.00;99628.63;5112932;28;20028;-86
2023/12/13 04:22:25;;;;;;;29.08;13.32;;;;;;;5.85;100.00;99633.66;5113219;28;20363;-83
2023/12/13 04:24:50;;;;;;;32.67;14.02;;;;;;;5.89;100.00;99632.41;5112996;28;20080;-84
2023/12/13 04:27:16;;;;;;;26.13;13.02;;;;;;;5.93;100.00;99637.25;5112961;28;20078;-83
2023/12/13 04:29:41;;;;;;;28.42;13.55;;;;;;;5.95;100.00;99631.84;5112901;28;20498;-83
2023/12/13 04:32:06;;;;;;;36.97;14.27;;;;;;;5.97;100.00;99630.78;5113003;28;20028;-83
2023/12/13 04:34:32;;;;;;;29.85;12.23;;;;;;;5.95;100.00;99630.03;5113027;28;20024;-82
2023/12/13 04:36:57;;;;;;;32.60;13.15;;;;;;;5.97;100.00;99636.06;5113090;28;20034;-83
2023/12/13 04:39:23;;;;;;;37.00;13.20;;;;;;;5.96;100.00;99633.53;5112581;28;20059;-83
2023/12/13 04:41:48;;;;;;;27.60;12.57;;;;;;;5.95;100.00;99634.47;5113057;28;20055;-83
2023/12/13 04:44:13;;;;;;;32.95;12.25;;;;;;;5.93;100.00;99631.16;5112777;28;20023;-82
2023/12/13 04:46:40;;;;;;;34.47;12.18;;;;;;;5.91;100.00;99641.00;5113107;28;20138;-84
2023/12/13 04:49:06;;;;;;;35.13;12.30;;;;;;;5.90;100.00;99629.63;5112885;28;20096;-83
2023/12/13 04:51:31;;;;;;;29.95;12.38;;;;;;;5.91;100.00;99635.72;5112264;28;20035;-82
2023/12/13 04:53:57;;;;;;;28.27;13.05;;;;;;;5.93;100.00;99625.88;5112779;28;20151;-82
2023/12/13 04:56:23;;;;;;;28.08;11.65;;;;;;;5.92;100.00;99626.84;5112594;28;20348;-82
2023/12/13 04:58:49;;;;;;;30.30;12.40;;;;;;;5.88;100.00;99628.94;5094147;28;20057;-82
2023/12/13 05:01:14;;;;;;;34.65;12.05;;;;;;;5.84;100.00;99627.53;5113128;28;20039;-85
2023/12/13 05:03:39;;;;;;;37.72;12.25;;;;;;;5.86;100.00;99633.50;5112645;28;20486;-82
2023/12/13 05:06:05;;;;;;;37.35;12.77;;;;;;;5.88;100.00;99631.56;5112988;28;20100;-82
2023/12/13 05:08:31;;;;;;;36.90;13.57;;;;;;;5.88;100.00;99625.44;5113253;28;20114;-83
2023/12/13 05:10:58;;;;;;;36.17;13.45;;;;;;;5.89;100.00;99630.59;5114984;28;20363;-82
2023/12/13 05:13:24;;;;;;;36.83;14.02;;;;;;;5.90;100.00;99629.63;5116461;28;20063;-82
2023/12/13 05:15:49;;;;;;;34.33;13.40;;;;;;;5.93;100.00;99625.88;5116453;28;20034;-83
2023/12/13 05:18:15;;;;;;;44.15;14.73;;;;;;;5.96;100.00;99634.34;5116482;28;20092;-83
2023/12/13 05:20:40;;;;;;;44.55;13.68;;;;;;;6.00;100.00;99627.84;5097588;28;20042;-83
2023/12/13 05:23:05;;;;;;;41.88;15.48;;;;;;;6.05;100.00;99631.88;5116890;28;20032;-83
2023/12/13 05:25:31;;;;;;;37.55;14.68;;;;;;;6.10;100.00;99633.13;5116503;28;20028;-83
2023/12/13 05:27:56;;;;;;;37.38;14.50;;;;;;;6.14;100.00;99623.13;5116270;28;20065;-84
2023/12/13 05:30:23;;;;;;;40.17;14.45;;;;;;;6.14;100.00;99626.59;5097507;28;20360;-82
2023/12/13 05:32:51;;;;;;;34.33;14.40;;;;;;;6.15;100.00;99622.13;5115676;28;20033;-82
2023/12/13 05:35:16;;;;;;;34.00;15.32;;;;;;;6.11;100.00;99626.88;5115845;28;20015;-82
2023/12/13 05:37:41;;;;;;;42.60;15.18;;;;;;;6.10;100.00;99629.66;5116014;28;20455;-82
2023/12/13 05:40:07;;;;;;;36.45;14.70;;;;;;;6.07;100.00;99625.47;5097578;28;20038;-81
2023/12/13 05:42:33;;;;;;;38.00;15.30;;;;;;;6.02;100.00;99630.34;5116433;28;20333;-86
2023/12/13 05:44:59;;;;;;;38.53;15.43;;;;;;;6.03;100.00;99624.09;5097490;28;20352;-82
2023/12/13 05:47:26;;;;;;;40.13;14.40;;;;;;;6.04;100.00;99624.94;5115902;28;20153;-82
2023/12/13 05:49:51;;;;;;;45.10;15.48;;;;;;;6.09;100.00;99633.25;5115692;28;20036;-83
2023/12/13 05:52:18;;;;;;;44.42;15.65;;;;;;;6.15;100.00;99625.63;5116039;28;20030;-82
2023/12/13 05:54:43;;;;;;;46.05;15.13;;;;;;;6.18;100.00;99638.53;5115735;28;20019;-83
2023/12/13 05:57:09;;;;;;;40.50;15.63;;;;;;;6.21;100.00;99636.59;5097581;28;20115;-82
2023/12/13 05:59:34;;;;;;;40.42;15.98;;;;;;;6.21;100.00;99636.59;5115686;28;20066;-83
2023/12/13 06:01:59;;;;;;;54.80;17.02;;;;;;;6.24;100.00;99631.03;5115431;28;20535;-82
2023/12/13 06:04:25;;;;;;;48.35;16.80;;;;;;;6.27;100.00;99636.03;5115566;28;20028;-83
2023/12/13 06:06:51;;;;;;;48.92;17.05;;;;;;;6.29;100.00;99640.19;5115483;28;20026;-82
2023/12/13 06:09:16;;;;;;;51.85;16.85;;;;;;;6.32;100.00;99636.44;5115088;28;20028;-83
2023/12/13 06:11:41;;;;;;;48.15;16.45;;;;;;;6.32;100.00;99637.28;5115545;28;20027;-83
2023/12/13 06:14:07;;;;;;;41.75;16.77;;;;;;;6.33;100.00;99640.78;5115170;28;20028;-82
2023/12/13 06:16:33;;;;;;;38.65;15.38;;;;;;;6.35;100.00;99646.72;5114829;28;20102;-82
2023/12/13 06:18:58;;;;;;;47.03;15.48;;;;;;;6.37;100.00;99644.78;5115108;28;20107;-84
2023/12/13 06:21:24;;;;;;;37.50;14.63;;;;;;;6.39;100.00;99642.84;5114668;28;20126;-83
2023/12/13 06:23:49;;;;;;;41.63;15.52;;;;;;;6.41;100.00;99645.34;5114778;28;20099;-85
2023/12/13 06:26:14;;;;;;;48.30;14.75;;;;;;;6.43;100.00;99641.56;5114800;28;20024;-83
2023/12/13 06:28:40;;;;;;;38.05;13.82;;;;;;;6.46;100.00;99643.09;5114817;28;20171;-82
2023/12/13 06:31:06;;;;;;;38.40;13.90;;;;;;;6.45;100.00;99644.06;5076054;28;20488;-82
2023/12/13 06:33:32;;;;;;;42.50;15.05;;;;;;;6.46;100.00;99648.38;5095016;28;20040;-82
2023/12/13 06:35:57;;;;;;;39.45;14.30;;;;;;;6.46;100.00;99637.81;5094511;28;20070;-84
2023/12/13 06:38:22;;;;;;;45.88;14.27;;;;;;;6.46;100.00;99643.09;5094334;28;20373;-83
2023/12/13 06:40:48;;;;;;;48.55;14.95;;;;;;;6.44;100.00;99643.25;5094611;28;20032;-82
2023/12/13 06:43:13;;;;;;;32.92;14.18;;;;;;;6.46;100.00;99643.09;5094842;28;20448;-82
2023/12/13 06:45:38;;;;;;;45.28;14.40;;;;;;;6.50;100.00;99652.41;5092869;28;20472;-82
2023/12/13 06:48:06;;;;;;;40.88;14.30;;;;;;;6.49;100.00;99642.81;5094258;28;20054;-83
2023/12/13 06:50:32;;;;;;;41.00;14.70;;;;;;;6.49;100.00;99648.09;5094642;28;20024;-82
2023/12/13 06:52:57;;;;;;;39.00;14.98;;;;;;;6.51;100.00;99646.16;5094326;28;20020;-81
2023/12/13 06:55:22;;;;;;;45.35;15.50;;;;;;;6.55;100.00;99647.53;5094615;28;20487;-82
2023/12/13 06:57:48;;;;;;;37.95;14.63;;;;;;;6.53;100.00;99649.50;5094589;28;20115;-82
2023/12/13 07:00:14;;;;;;;42.15;14.90;;;;;;;6.54;100.00;99648.53;5094667;28;20107;-83
2023/12/13 07:02:39;;;;;;;33.05;13.82;;;;;;;6.54;100.00;99656.44;5092758;28;20109;-84
2023/12/13 07:05:08;;;;;;;41.78;15.02;;;;;;;6.53;100.00;99652.13;5093909;28;20035;-85
2023/12/13 07:07:34;;;;;;;41.35;14.65;;;;;;;6.52;100.00;99651.31;5098745;28;20052;-85
2023/12/13 07:09:59;;;;;;;43.72;15.35;;;;;;;6.56;100.00;99651.84;5099107;28;20031;-80
2023/12/13 07:12:28;;;;;;;36.63;13.77;;;;;;;6.57;100.00;99658.81;5094121;28;20115;-84
2023/12/13 07:14:56;;;;;;;39.17;14.88;;;;;;;6.60;100.00;99655.03;5093877;28;20028;-82
2023/12/13 07:17:25;;;;;;;44.25;14.88;;;;;;;6.61;100.00;99657.53;5093895;28;20024;-82
2023/12/13 07:19:50;;;;;;;41.92;14.50;;;;;;;6.61;100.00;99654.88;5093588;28;20023;-82
2023/12/13 07:22:18;;;;;;;35.67;14.43;;;;;;;6.62;100.00;99658.38;5093320;28;20031;-82
2023/12/13 07:24:43;;;;;;;43.85;14.77;;;;;;;6.62;100.00;99661.84;5093575;28;20593;-82
2023/12/13 07:27:09;;;;;;;43.25;15.57;;;;;;;6.63;100.00;99662.69;5093790;28;20109;-82
2023/12/13 07:29:34;;;;;;;45.95;15.07;;;;;;;6.62;100.00;99661.03;5092123;28;20042;-80
2023/12/13 07:31:59;;;;;;;38.30;14.10;;;;;;;6.63;100.00;99671.44;5092735;28;20383;-80
2023/12/13 07:34:25;;;;;;;57.42;14.57;;;;;;;6.62;100.00;99664.50;5092883;28;20110;-82
2023/12/13 07:36:53;;;;;;;40.13;15.80;;;;;;;6.62;100.00;99677.69;5093401;28;20448;-82
2023/12/13 07:39:18;;;;;;;50.42;15.65;;;;;;;6.62;100.00;99679.53;5093175;28;20107;-81
2023/12/13 07:41:44;;;;;;;38.17;15.00;;;;;;;6.64;100.00;99674.91;5093090;28;20092;-78
2023/12/13 07:44:09;;;;;;;43.00;15.07;;;;;;;6.64;100.00;99678.41;5093604;28;20111;-79
2023/12/13 07:46:36;;;;;;;45.88;15.95;;;;;;;6.65;100.00;99682.69;5091719;28;20040;-79
2023/12/13 07:49:03;;;;;;;40.00;16.33;;;;;;;6.66;100.00;99683.56;5093066;28;20179;-82
2023/12/13 07:51:29;;;;;;;47.10;16.35;;;;;;;6.67;100.00;99687.84;5091710;28;20035;-81
2023/12/13 07:53:55;;;;;;;48.72;15.52;;;;;;;6.65;100.00;99677.41;5092412;28;20122;-77
2023/12/13 07:56:21;;;;;;;39.20;15.43;;;;;;;6.68;100.00;99693.00;5092358;28;20017;-79
2023/12/13 07:58:46;;;;;;;45.05;15.27;;;;;;;6.69;100.00;99691.19;5074349;28;20444;-79
2023/12/13 08:01:15;;;;;;;43.30;17.00;;;;;;;6.68;100.00;99694.81;5092558;28;20093;-78
2023/12/13 08:03:40;;;;;;;43.13;15.85;;;;;;;6.69;100.00;99696.50;5092644;28;20020;-80
2023/12/13 08:06:26;;;;;;;43.15;17.17;;;;;;;6.71;100.00;99697.16;5092163;28;20030;-78
2023/12/13 08:08:51;;;;;;;46.13;15.95;;;;;;;6.71;100.00;99699.81;5073696;28;20043;-80
2023/12/13 08:11:17;;;;;;;39.15;16.27;;;;;;;6.73;100.00;99697.84;5092561;28;20448;-80
2023/12/13 08:13:42;;;;;;;44.95;15.75;;;;;;;6.74;100.00;99699.53;5091278;28;20047;-84
2023/12/13 08:16:09;;;;;;;52.97;17.45;;;;;;;6.75;100.00;99706.50;5091120;28;20031;-79
2023/12/13 08:18:35;;;;;;;42.95;16.77;;;;;;;6.78;100.00;99700.09;5092520;28;20322;-80
2023/12/13 08:21:01;;;;;;;48.03;16.92;;;;;;;6.79;100.00;99707.88;5091450;28;20463;-77
2023/12/13 08:23:27;;;;;;;42.75;17.35;;;;;;;6.81;100.00;99705.09;5092667;28;20028;-79
2023/12/13 08:25:55;;;;;;;42.33;16.40;;;;;;;6.82;100.00;99717.31;5092493;28;20035;-81
2023/12/13 08:28:22;;;;;;;39.53;16.45;;;;;;;6.84;100.00;99712.75;5092209;28;20425;-77
2023/12/13 08:30:47;;;;;;;43.42;17.02;;;;;;;6.86;100.00;99710.78;5108919;28;20046;-79
2023/12/13 08:33:13;;;;;;;48.05;17.30;;;;;;;6.91;100.00;99716.47;5112475;28;20118;-77
2023/12/13 08:35:38;;;;;;;50.05;17.85;;;;;;;6.93;100.00;99719.81;5112451;28;20055;-81
2023/12/13 08:38:04;;;;;;;44.10;16.73;;;;;;;6.97;100.00;99715.06;5112769;28;20092;-81
2023/12/13 08:40:29;;;;;;;46.78;16.98;;;;;;;6.99;100.00;99719.25;5112637;28;20102;-81
2023/12/13 08:42:54;;;;;;;43.92;17.83;;;;;;;7.04;100.00;99726.75;5112316;28;20028;-78
2023/12/13 08:45:20;;;;;;;47.60;17.52;;;;;;;7.05;100.00;99716.00;5115447;28;20030;-76
2023/12/13 08:47:45;;;;;;;44.80;17.77;;;;;;;7.06;100.00;99730.06;5116584;28;20062;-77
2023/12/13 08:50:10;;;;;;;43.75;16.60;;;;;;;7.10;100.00;99725.34;5116412;28;20028;-81
2023/12/13 08:52:36;;;;;;;34.95;16.00;;;;;;;7.11;100.00;99722.53;5116925;28;20024;-77
2023/12/13 08:55:01;;;;;;;39.85;15.55;;;;;;;7.11;100.00;99727.84;5116808;28;20027;-77
2023/12/13 08:57:27;;;;;;;41.03;15.60;;;;;;;7.09;100.00;99726.31;5116527;28;20024;-75
2023/12/13 08:59:52;;;;;;;45.78;15.80;;;;;;;7.07;100.00;99729.91;5116097;28;20082;-78
2023/12/13 09:02:18;;;;;;;36.50;14.82;;;;;;;7.06;100.00;99738.84;5116379;28;20043;-78
2023/12/13 09:04:43;;;;;;;42.67;15.55;;;;;;;7.04;100.00;99737.31;5116297;28;20039;-75
2023/12/13 09:07:08;;;;;;;33.38;13.05;;;;;;;7.04;100.00;99742.59;5097865;28;20028;-76
2023/12/13 09:09:36;;;;;;;36.20;14.50;;;;;;;7.03;100.00;99743.56;5098112;28;20134;-75
2023/12/13 09:12:02;;;;;;;45.30;14.45;;;;;;;7.02;100.00;99749.88;5115853;28;20104;-77
2023/12/13 09:14:27;;;;;;;40.20;13.88;;;;;;;7.00;100.00;99747.38;5097598;28;20024;-76
2023/12/13 09:16:53;;;;;;;40.10;13.43;;;;;;;7.01;100.00;99751.66;5098090;28;20035;-79
2023/12/13 09:19:19;;;;;;;33.20;13.90;;;;;;;7.00;100.00;99750.00;5115985;28;20039;-74
2023/12/13 09:21:44;;;;;;;36.97;13.88;;;;;;;7.03;100.00;99754.16;5116165;28;20050;-75
2023/12/13 09:24:09;;;;;;;42.22;14.77;;;;;;;7.05;100.00;99753.03;5115775;28;20023;-76
2023/12/13 09:26:38;;;;;;;53.90;16.90;;;;;;;7.07;100.00;99763.47;5115442;28;20460;-75
2023/12/13 09:29:04;;;;;;;36.80;14.73;;;;;;;7.11;100.00;99756.09;5115558;28;20039;-76
2023/12/13 09:31:30;;;;;;;39.28;14.02;;;;;;;7.17;100.00;99755.53;5116511;28;20494;-76
2023/12/13 09:33:57;;;;;;;41.00;14.88;;;;;;;7.22;100.00;99758.56;5097346;28;20054;-77
2023/12/13 09:36:22;;;;;;;41.13;14.57;;;;;;;7.27;100.00;99761.63;5115789;28;20088;-79
2023/12/13 09:38:48;;;;;;;36.08;14.38;;;;;;;7.33;100.00;99757.56;5115549;28;20031;-76
2023/12/13 09:41:23;;;;;;;45.05;14.80;;;;;;;7.35;100.00;99764.38;5115330;28;20089;-77
2023/12/13 09:43:49;;;;;;;34.92;14.23;;;;;;;7.36;100.00;99760.75;5115552;28;20020;-76
2023/12/13 09:46:18;;;;;;;36.58;14.50;;;;;;;7.37;100.00;99762.41;5115569;28;20077;-76
2023/12/13 09:48:44;;;;;;;36.70;13.18;;;;;;;7.37;100.00;99765.06;5115825;28;20024;-75
2023/12/13 09:51:11;;;;;;;36.95;14.35;;;;;;;7.39;100.00;99772.88;5115468;28;20081;-75
2023/12/13 09:53:38;;;;;;;33.03;13.93;;;;;;;7.38;100.00;99774.66;5115520;28;20092;-75
2023/12/13 09:56:04;;;;;;;44.60;14.75;;;;;;;7.38;100.00;99781.78;5115888;28;20027;-77
2023/12/13 09:58:30;;;;;;;39.28;14.70;;;;;;;7.36;100.00;99789.03;5116323;28;20324;-77
2023/12/13 10:00:56;;;;;;;31.02;13.82;;;;;;;7.36;100.00;99787.22;5116268;28;20023;-75
2023/12/13 10:03:21;;;;;;;32.65;13.68;;;;;;;7.37;100.00;99793.34;5116649;28;20023;-75
2023/12/13 10:05:48;;;;;;;42.22;14.52;;;;;;;7.36;100.00;99796.97;5116639;28;20500;-74
2023/12/13 10:08:15;;;;;;;35.47;13.55;;;;;;;7.32;100.00;99792.94;5115870;28;20106;-74
2023/12/13 10:10:43;;;;;;;39.72;13.45;;;;;;;7.32;100.00;99798.25;5116317;28;20031;-74
2023/12/13 10:13:10;;;;;;;39.25;14.63;;;;;;;7.29;100.00;99796.72;5115979;28;20092;-75
2023/12/13 10:15:35;;;;;;;40.80;14.38;;;;;;;7.29;100.00;99801.19;5115600;28;20073;-75
2023/12/13 10:18:01;;;;;;;40.55;14.25;;;;;;;7.30;100.00;99801.03;5097720;28;20443;-76
2023/12/13 10:20:28;;;;;;;38.22;14.45;;;;;;;7.33;100.00;99802.53;5115825;28;20028;-74
2023/12/13 10:22:54;;;;;;;39.30;14.07;;;;;;;7.36;100.00;99805.75;5115826;28;20032;-75
2023/12/13 10:25:21;;;;;;;52.35;14.13;;;;;;;7.38;100.00;99806.44;5098256;28;20035;-76
2023/12/13 10:27:47;;;;;;;40.47;14.45;;;;;;;7.39;100.00;99807.28;5115894;28;20023;-76
2023/12/13 10:30:12;;;;;;;39.70;15.63;;;;;;;7.40;100.00;99809.78;5115799;28;20483;-74
2023/12/13 10:32:38;;;;;;;50.92;18.77;;;;;;;7.37;100.00;99812.69;5116174;28;20035;-76
2023/12/13 10:35:05;;;;;;;57.88;19.83;;;;;;;7.39;100.00;99812.56;5115472;28;20035;-76
2023/12/13 10:37:33;;;;;;;45.53;18.73;;;;;;;7.43;100.00;99813.94;5115179;28;20452;-75
2023/12/13 10:39:59;;;;;;;52.92;19.20;;;;;;;7.47;100.00;99811.84;5115480;28;20062;-77
2023/12/13 10:42:25;;;;;;;53.75;20.27;;;;;;;7.46;100.00;99812.81;5115349;28;20027;-75
2023/12/13 10:44:52;;;;;;;46.97;18.38;;;;;;;7.48;100.00;99817.00;5115372;28;20027;-75
2023/12/13 10:47:24;;;;;;;50.47;18.08;;;;;;;7.54;100.00;99820.91;5115198;28;20455;-75
2023/12/13 10:49:51;;;;;;;50.70;18.85;;;;;;;7.59;100.00;99818.63;5115849;28;20050;-75
2023/12/13 10:52:19;;;;;;;53.20;18.52;;;;;;;7.65;100.00;99817.22;5115299;28;20019;-76
2023/12/13 10:54:47;;;;;;;49.40;19.13;;;;;;;7.73;100.00;99819.97;5115459;28;20031;-76
2023/12/13 10:57:12;;;;;;;51.42;19.17;;;;;;;7.80;100.00;99820.22;5115104;28;20023;-76
2023/12/13 10:59:41;;;;;;;42.95;18.13;;;;;;;7.85;100.00;99820.63;5114689;28;20032;-76
2023/12/13 11:02:09;;;;;;;46.05;18.75;;;;;;;7.84;100.00;99821.63;5114998;28;20035;-75
2023/12/13 11:04:36;;;;;;;50.50;18.30;;;;;;;7.83;100.00;99826.06;5114785;28;20027;-75
2023/12/13 11:07:04;;;;;;;36.90;16.77;;;;;;;7.83;100.00;99828.72;5114876;28;20057;-75
2023/12/13 11:09:29;;;;;;;36.95;16.83;;;;;;;7.81;100.00;99829.81;5114766;28;20051;-73
2023/12/13 11:11:57;;;;;;;48.45;17.55;;;;;;;7.77;100.00;99832.75;5115467;28;20481;-75
2023/12/13 11:14:26;;;;;;;44.60;18.50;;;;;;;7.80;100.00;99829.00;5114686;28;20370;-75